Time;durP1;ratioP1;P1;durP2;ratioP2;P2;SDS_P1;SDS_P2;PMS_P1;PMS_P2;Temp;Humidity;BMP_temperature;BMP_pressure;BME280_temperature;BME280_humidity;BME280_pressure;Samples;Min_cycle;Max_cycle;Signal;HPM_P1;HPM_P2
2022/07/11 00:00:07;;;;;;;;;4.00;4.00;;;;;;;;5060696;28;45289;-71
2022/07/11 00:02:34;;;;;;;;;6.33;6.33;;;;;;;;5064704;28;46544;-71
2022/07/11 00:04:59;;;;;;;;;4.67;4.67;;;;;;;;5080363;28;45416;-70
2022/07/11 00:07:24;;;;;;;;;4.33;4.00;;;;;;;;5080508;28;45226;-69
2022/07/11 00:09:50;;;;;;;;;7.33;5.00;;;;;;;;5080628;28;45594;-71
2022/07/11 00:12:15;;;;;;;;;3.33;3.00;;;;;;;;5080459;28;47158;-70
2022/07/11 00:14:40;;;;;;;;;5.33;3.67;;;;;;;;5080698;28;45375;-70
2022/07/11 00:17:07;;;;;;;;;4.00;3.00;;;;;;;;5080655;28;45392;-69
2022/07/11 00:19:33;;;;;;;;;4.00;4.00;;;;;;;;5080532;28;45531;-70
2022/07/11 00:21:58;;;;;;;;;5.00;5.00;;;;;;;;5080343;28;45308;-70
2022/07/11 00:24:24;;;;;;;;;3.33;3.33;;;;;;;;5079729;28;45304;-69
2022/07/11 00:26:50;;;;;;;;;10.00;5.00;;;;;;;;5080545;28;45376;-70
2022/07/11 00:29:16;;;;;;;;;4.67;4.33;;;;;;;;5080496;28;45167;-70
2022/07/11 00:31:42;;;;;;;;;5.00;4.00;;;;;;;;5079856;28;45447;-71
2022/07/11 00:34:07;;;;;;;;;4.00;4.00;;;;;;;;5080165;28;45401;-71
2022/07/11 00:36:32;;;;;;;;;7.00;4.00;;;;;;;;5080166;28;45350;-71
2022/07/11 00:38:58;;;;;;;;;7.00;5.00;;;;;;;;5080191;28;45364;-71
2022/07/11 00:41:23;;;;;;;;;7.00;6.00;;;;;;;;5080124;28;46353;-70
2022/07/11 00:43:53;;;;;;;;;5.00;3.00;;;;;;;;5079665;28;45497;-71
2022/07/11 00:46:18;;;;;;;;;4.00;4.00;;;;;;;;5080532;28;45285;-71
2022/07/11 00:48:44;;;;;;;;;3.67;3.67;;;;;;;;5080231;28;45207;-71
2022/07/11 00:51:09;;;;;;;;;6.67;5.00;;;;;;;;5078350;28;45917;-71
2022/07/11 00:53:35;;;;;;;;;6.67;6.67;;;;;;;;5079594;28;45390;-71
2022/07/11 00:56:01;;;;;;;;;7.00;5.00;;;;;;;;5080057;28;45322;-71
2022/07/11 00:58:26;;;;;;;;;8.00;6.00;;;;;;;;5078685;28;45601;-70
2022/07/11 01:00:51;;;;;;;;;5.33;5.33;;;;;;;;5078751;28;46672;-71
2022/07/11 01:03:17;;;;;;;;;5.00;5.00;;;;;;;;5079620;28;45422;-71
2022/07/11 01:05:42;;;;;;;;;9.33;5.33;;;;;;;;5079915;28;45366;-71
2022/07/11 01:08:07;;;;;;;;;7.00;5.33;;;;;;;;5079866;28;45389;-70
2022/07/11 01:10:33;;;;;;;;;4.67;4.00;;;;;;;;5079767;28;45319;-71
2022/07/11 01:12:58;;;;;;;;;5.00;5.00;;;;;;;;5060563;28;45467;-70
2022/07/11 01:15:24;;;;;;;;;4.00;4.00;;;;;;;;5079646;28;45338;-69
2022/07/11 01:17:52;;;;;;;;;6.67;5.33;;;;;;;;5079959;28;45298;-69
2022/07/11 01:20:17;;;;;;;;;6.67;6.33;;;;;;;;5079082;28;47275;-70
2022/07/11 01:22:53;;;;;;;;;7.67;6.33;;;;;;;;5079493;28;45314;-70
2022/07/11 01:25:30;;;;;;;;;8.67;6.00;;;;;;;;5079511;28;45282;-70
2022/07/11 01:27:58;;;;;;;;;5.00;5.00;;;;;;;;5075133;28;45423;-69
2022/07/11 01:30:25;;;;;;;;;5.33;4.33;;;;;;;;5058742;28;46499;-70
2022/07/11 01:32:51;;;;;;;;;9.00;6.00;;;;;;;;5059312;28;45445;-69
2022/07/11 01:35:16;;;;;;;;;8.00;6.00;;;;;;;;5075105;28;45350;-69
2022/07/11 01:37:42;;;;;;;;;7.67;6.00;;;;;;;;5079583;28;45396;-70
2022/07/11 01:40:07;;;;;;;;;6.67;5.33;;;;;;;;5078784;28;46477;-70
2022/07/11 01:42:32;;;;;;;;;7.67;5.67;;;;;;;;5079216;28;45300;-70
2022/07/11 01:44:58;;;;;;;;;5.00;5.00;;;;;;;;5079527;28;45277;-70
2022/07/11 01:47:23;;;;;;;;;9.33;6.67;;;;;;;;5079362;28;45348;-70
2022/07/11 01:49:48;;;;;;;;;7.00;6.00;;;;;;;;5064719;28;46470;-70
2022/07/11 01:52:13;;;;;;;;;7.33;5.00;;;;;;;;5058380;28;45163;-70
2022/07/11 01:54:39;;;;;;;;;11.00;7.00;;;;;;;;5059049;28;45687;-70
2022/07/11 01:57:04;;;;;;;;;7.00;5.67;;;;;;;;5059252;28;45234;-70
2022/07/11 01:59:29;;;;;;;;;7.00;5.33;;;;;;;;5058516;28;47246;-69
2022/07/11 02:01:55;;;;;;;;;6.50;5.00;;;;;;;;5058599;28;45209;-70
2022/07/11 02:04:20;;;;;;;;;7.67;7.00;;;;;;;;5077173;27;45530;-70
2022/07/11 02:06:45;;;;;;;;;6.33;5.33;;;;;;;;5078725;28;45482;-70
2022/07/11 02:09:10;;;;;;;;;9.00;7.00;;;;;;;;5078471;28;45486;-70
2022/07/11 02:11:36;;;;;;;;;8.33;6.00;;;;;;;;5078630;28;45626;-70
2022/07/11 02:14:02;;;;;;;;;8.67;7.00;;;;;;;;5078560;28;45369;-70
2022/07/11 02:16:27;;;;;;;;;7.33;5.33;;;;;;;;5078574;28;45387;-69
2022/07/11 02:18:52;;;;;;;;;7.33;6.33;;;;;;;;5078221;28;46567;-69
2022/07/11 02:21:18;;;;;;;;;6.33;5.67;;;;;;;;5078219;28;45730;-70
2022/07/11 02:23:43;;;;;;;;;9.00;7.00;;;;;;;;5078446;28;45385;-69
2022/07/11 02:26:08;;;;;;;;;8.67;7.33;;;;;;;;5078805;28;45744;-70
2022/07/11 02:28:34;;;;;;;;;8.67;8.33;;;;;;;;5078320;28;45393;-70
2022/07/11 02:30:59;;;;;;;;;9.00;8.00;;;;;;;;5078598;28;45385;-69
2022/07/11 02:33:24;;;;;;;;;6.00;6.00;;;;;;;;5078281;28;45397;-70
2022/07/11 02:35:50;;;;;;;;;10.67;7.67;;;;;;;;5078683;28;45426;-70
2022/07/11 02:38:15;;;;;;;;;6.00;6.00;;;;;;;;5078083;28;47090;-70
2022/07/11 02:40:41;;;;;;;;;8.33;6.33;;;;;;;;5077969;28;45368;-70
2022/07/11 02:43:06;;;;;;;;;8.00;6.00;;;;;;;;5078506;28;45354;-69
2022/07/11 02:45:31;;;;;;;;;8.00;7.00;;;;;;;;5078147;28;45395;-69
2022/07/11 02:47:56;;;;;;;;;8.00;5.33;;;;;;;;5077833;28;46595;-70
2022/07/11 02:50:22;;;;;;;;;8.67;7.33;;;;;;;;5078282;28;45315;-69
2022/07/11 02:52:47;;;;;;;;;10.33;10.33;;;;;;;;5077690;28;45237;-70
2022/07/11 02:55:12;;;;;;;;;9.67;7.00;;;;;;;;5078441;28;45413;-70
2022/07/11 02:57:38;;;;;;;;;8.00;8.00;;;;;;;;5077976;28;47295;-70
2022/07/11 03:00:04;;;;;;;;;10.33;7.00;;;;;;;;5077610;28;45244;-70
2022/07/11 03:02:30;;;;;;;;;12.00;8.00;;;;;;;;5077960;28;45373;-70
2022/07/11 03:04:55;;;;;;;;;7.33;6.67;;;;;;;;5078021;28;45237;-70
2022/07/11 03:07:20;;;;;;;;;7.00;5.33;;;;;;;;5077771;28;46677;-70
2022/07/11 03:09:45;;;;;;;;;11.00;9.00;;;;;;;;5077475;28;45362;-70
2022/07/11 03:12:11;;;;;;;;;9.67;7.67;;;;;;;;5077734;28;45387;-70
2022/07/11 03:14:36;;;;;;;;;8.00;7.67;;;;;;;;5077010;28;45332;-70
2022/07/11 03:17:01;;;;;;;;;9.67;6.33;;;;;;;;5077478;28;46744;-71
2022/07/11 03:19:26;;;;;;;;;9.00;8.00;;;;;;;;5077892;28;45241;-71
2022/07/11 03:21:52;;;;;;;;;8.33;6.67;;;;;;;;5077478;28;45135;-70
2022/07/11 03:24:17;;;;;;;;;7.33;6.33;;;;;;;;5077882;28;45552;-70
2022/07/11 03:26:42;;;;;;;;;11.00;9.00;;;;;;;;5077432;28;46213;-70
2022/07/11 03:29:08;;;;;;;;;11.00;7.67;;;;;;;;5077155;28;45343;-71
2022/07/11 03:31:33;;;;;;;;;10.67;8.00;;;;;;;;5077629;28;45367;-70
2022/07/11 03:33:58;;;;;;;;;10.00;7.67;;;;;;;;5077818;28;45254;-70
2022/07/11 03:36:24;;;;;;;;;9.00;6.33;;;;;;;;5077367;28;45516;-70
2022/07/11 03:38:49;;;;;;;;;9.33;8.00;;;;;;;;5077184;28;45819;-70
2022/07/11 03:41:14;;;;;;;;;6.33;6.33;;;;;;;;5077308;28;45435;-70
2022/07/11 03:43:39;;;;;;;;;9.00;8.67;;;;;;;;5077759;28;45746;-70
2022/07/11 03:46:06;;;;;;;;;6.00;6.00;;;;;;;;5077060;28;46143;-70
2022/07/11 03:48:32;;;;;;;;;8.33;7.00;;;;;;;;5077386;28;45395;-70
2022/07/11 03:50:57;;;;;;;;;10.33;7.67;;;;;;;;5077470;28;45277;-70
2022/07/11 03:53:22;;;;;;;;;6.00;6.00;;;;;;;;5077171;28;45484;-70
2022/07/11 03:55:47;;;;;;;;;7.33;7.00;;;;;;;;5076802;28;45581;-70
2022/07/11 03:58:13;;;;;;;;;98.00;92.75;;;;;;;;5077113;28;45431;-70
2022/07/11 04:00:38;;;;;;;;;40.33;35.00;;;;;;;;5077039;28;45185;-69
2022/07/11 04:03:03;;;;;;;;;13.00;11.00;;;;;;;;5077181;28;45408;-70
2022/07/11 04:05:28;;;;;;;;;16.33;14.00;;;;;;;;5076689;28;46313;-70
2022/07/11 04:07:54;;;;;;;;;12.00;8.00;;;;;;;;5076952;28;46879;-70
2022/07/11 04:10:19;;;;;;;;;7.33;7.33;;;;;;;;5076909;28;45460;-70
2022/07/11 04:12:46;;;;;;;;;8.00;7.67;;;;;;;;5077250;28;45253;-69
2022/07/11 04:15:11;;;;;;;;;10.00;10.00;;;;;;;;5076707;28;46238;-70
2022/07/11 04:17:37;;;;;;;;;7.67;7.67;;;;;;;;5076802;28;45332;-69
2022/07/11 04:20:03;;;;;;;;;1.00;1.00;;;;;;;;5077307;28;45364;-69
2022/07/11 04:22:28;;;;;;;;;9.00;6.00;;;;;;;;5076876;28;45313;-69
2022/07/11 04:24:53;;;;;;;;;10.67;8.00;;;;;;;;5076588;28;45460;-70
2022/07/11 04:27:18;;;;;;;;;24.33;21.33;;;;;;;;5079726;28;45476;-70
2022/07/11 04:29:43;;;;;;;;;9.00;8.00;;;;;;;;5079993;28;45353;-71
2022/07/11 04:32:09;;;;;;;;;8.00;7.00;;;;;;;;5080630;28;45230;-71
2022/07/11 04:34:34;;;;;;;;;17.00;14.33;;;;;;;;5080238;28;45381;-70
2022/07/11 04:36:59;;;;;;;;;14.33;10.00;;;;;;;;5079954;28;45360;-71
2022/07/11 04:39:24;;;;;;;;;15.00;9.67;;;;;;;;5080234;28;45380;-71
2022/07/11 04:41:50;;;;;;;;;12.00;7.67;;;;;;;;5079860;28;45238;-70
2022/07/11 04:44:15;;;;;;;;;10.67;8.33;;;;;;;;5079942;28;46204;-70
2022/07/11 04:46:40;;;;;;;;;10.67;10.00;;;;;;;;5079850;28;45412;-70
2022/07/11 04:49:05;;;;;;;;;11.00;10.67;;;;;;;;5080043;28;45411;-70
2022/07/11 04:51:30;;;;;;;;;7.00;7.00;;;;;;;;5080381;28;45366;-70
2022/07/11 04:53:56;;;;;;;;;12.00;8.33;;;;;;;;5079720;28;46480;-70
2022/07/11 04:56:21;;;;;;;;;25.67;25.67;;;;;;;;5079971;28;45379;-70
2022/07/11 04:58:46;;;;;;;;;11.00;11.00;;;;;;;;5079959;28;45411;-70
2022/07/11 05:01:11;;;;;;;;;14.33;11.00;;;;;;;;5080012;28;45435;-70
2022/07/11 05:03:37;;;;;;;;;17.67;9.33;;;;;;;;5079675;28;46352;-70
2022/07/11 05:06:03;;;;;;;;;12.67;10.67;;;;;;;;5079753;28;45366;-70
2022/07/11 05:08:29;;;;;;;;;14.00;11.33;;;;;;;;5065918;28;45292;-71
2022/07/11 05:10:54;;;;;;;;;17.67;12.67;;;;;;;;5059362;28;45356;-71
2022/07/11 05:13:19;;;;;;;;;13.00;11.67;;;;;;;;5059324;28;46238;-72
2022/07/11 05:15:44;;;;;;;;;11.67;10.33;;;;;;;;5059195;28;45468;-71
2022/07/11 05:18:10;;;;;;;;;12.00;11.00;;;;;;;;5059367;28;45348;-72
2022/07/11 05:20:35;;;;;;;;;13.00;11.00;;;;;;;;5059610;28;45359;-71
2022/07/11 05:23:01;;;;;;;;;11.00;11.00;;;;;;;;5059127;28;46150;-71
2022/07/11 05:25:26;;;;;;;;;12.33;12.33;;;;;;;;5059130;28;45253;-71
2022/07/11 05:27:51;;;;;;;;;18.00;13.67;;;;;;;;5059105;28;45527;-71
2022/07/11 05:30:16;;;;;;;;;13.00;13.00;;;;;;;;5076836;28;45476;-71
2022/07/11 05:32:41;;;;;;;;;22.00;16.33;;;;;;;;5074519;28;45311;-71
2022/07/11 05:35:07;;;;;;;;;16.33;16.33;;;;;;;;5078306;28;45467;-71
2022/07/11 05:37:32;;;;;;;;;24.33;20.33;;;;;;;;5074783;28;45446;-71
2022/07/11 05:39:58;;;;;;;;;22.67;21.33;;;;;;;;5075524;28;45587;-70
2022/07/11 05:42:23;;;;;;;;;13.00;13.00;;;;;;;;5079001;28;45559;-70
2022/07/11 05:44:48;;;;;;;;;15.33;14.00;;;;;;;;5079079;28;45459;-70
2022/07/11 05:47:14;;;;;;;;;13.33;13.00;;;;;;;;5079056;28;45377;-70
2022/07/11 05:49:39;;;;;;;;;17.00;14.33;;;;;;;;5079266;28;45229;-70
2022/07/11 05:52:04;;;;;;;;;16.00;16.00;;;;;;;;5078771;28;46397;-70
2022/07/11 05:54:30;;;;;;;;;21.00;17.33;;;;;;;;5078714;28;45394;-70
2022/07/11 05:56:55;;;;;;;;;25.33;24.00;;;;;;;;5079035;28;45314;-70
2022/07/11 05:59:20;;;;;;;;;17.67;16.33;;;;;;;;5069785;27;45312;-70
2022/07/11 06:01:46;;;;;;;;;14.67;14.67;;;;;;;;5057136;28;47522;-70
2022/07/11 06:04:12;;;;;;;;;18.00;16.33;;;;;;;;5076165;27;45383;-70
2022/07/11 06:06:37;;;;;;;;;23.33;22.00;;;;;;;;5078661;28;45348;-70
2022/07/11 06:09:02;;;;;;;;;21.00;16.33;;;;;;;;5077654;28;45504;-70
2022/07/11 06:11:28;;;;;;;;;20.00;16.00;;;;;;;;5078544;28;46488;-70
2022/07/11 06:13:53;;;;;;;;;15.67;15.67;;;;;;;;5078810;28;45656;-70
2022/07/11 06:16:18;;;;;;;;;16.00;15.67;;;;;;;;5078698;28;45239;-70
2022/07/11 06:18:44;;;;;;;;;17.33;16.67;;;;;;;;5078712;28;45253;-70
2022/07/11 06:21:09;;;;;;;;;13.33;13.33;;;;;;;;5078491;28;45401;-70
2022/07/11 06:23:35;;;;;;;;;19.67;15.33;;;;;;;;5078564;28;45448;-70
2022/07/11 06:26:00;;;;;;;;;17.00;12.33;;;;;;;;5078209;28;45492;-71
2022/07/11 06:28:25;;;;;;;;;16.67;13.00;;;;;;;;5078695;28;45444;-71
2022/07/11 06:30:51;;;;;;;;;14.67;14.67;;;;;;;;5077910;28;46415;-71
2022/07/11 06:33:17;;;;;;;;;8.00;7.67;;;;;;;;5078394;28;45422;-70
2022/07/11 06:35:42;;;;;;;;;12.00;10.33;;;;;;;;5078605;28;45365;-70
2022/07/11 06:38:07;;;;;;;;;12.67;12.67;;;;;;;;5078542;28;45377;-70
2022/07/11 06:40:33;;;;;;;;;13.67;13.33;;;;;;;;5078100;28;45570;-69
2022/07/11 06:42:58;;;;;;;;;12.00;10.00;;;;;;;;5078256;28;45368;-70
2022/07/11 06:45:23;;;;;;;;;9.00;7.33;;;;;;;;5078222;28;45305;-69
2022/07/11 06:47:48;;;;;;;;;10.67;7.67;;;;;;;;5078331;28;45347;-70
2022/07/11 06:50:13;;;;;;;;;10.00;8.33;;;;;;;;5077174;28;45562;-70
2022/07/11 06:52:39;;;;;;;;;8.67;7.67;;;;;;;;5077997;28;45355;-72
2022/07/11 06:55:04;;;;;;;;;6.33;5.67;;;;;;;;5077756;28;45693;-78
2022/07/11 06:57:29;;;;;;;;;11.00;8.00;;;;;;;;5077811;28;45384;-68
2022/07/11 06:59:54;;;;;;;;;7.00;6.00;;;;;;;;5077750;28;45536;-68
2022/07/11 07:02:20;;;;;;;;;9.33;7.33;;;;;;;;5077535;28;45270;-68
2022/07/11 07:04:45;;;;;;;;;9.00;9.00;;;;;;;;5077339;28;45494;-68
2022/07/11 07:07:10;;;;;;;;;8.33;7.00;;;;;;;;5072592;28;45395;-68
2022/07/11 07:09:36;;;;;;;;;6.33;6.33;;;;;;;;5075656;28;46905;-68
2022/07/11 07:12:01;;;;;;;;;6.67;5.00;;;;;;;;5075702;28;45378;-68
2022/07/11 07:14:26;;;;;;;;;5.33;5.33;;;;;;;;5075373;28;45498;-68
2022/07/11 07:16:51;;;;;;;;;4.67;4.00;;;;;;;;5075707;28;45466;-67
2022/07/11 07:19:16;;;;;;;;;5.00;5.00;;;;;;;;5075456;28;46463;-68
2022/07/11 07:21:42;;;;;;;;;8.67;8.00;;;;;;;;5072493;28;45408;-68
2022/07/11 07:24:07;;;;;;;;;6.00;4.67;;;;;;;;5055666;28;45562;-68
2022/07/11 07:26:32;;;;;;;;;4.00;4.00;;;;;;;;5061910;28;45494;-66
2022/07/11 07:28:58;;;;;;;;;4.33;4.33;;;;;;;;5075132;28;45602;-68
2022/07/11 07:31:23;;;;;;;;;6.00;4.00;;;;;;;;5075010;28;45488;-68
2022/07/11 07:33:49;;;;;;;;;4.33;3.00;;;;;;;;5075342;28;45404;-67
2022/07/11 07:36:14;;;;;;;;;3.67;3.67;;;;;;;;5076248;28;45450;-69
2022/07/11 07:38:43;;;;;;;;;4.00;4.00;;;;;;;;5074541;28;45439;-69
2022/07/11 07:41:08;;;;;;;;;5.33;4.00;;;;;;;;5075469;28;45716;-69
2022/07/11 07:43:33;;;;;;;;;4.33;4.33;;;;;;;;5075152;28;45700;-67
2022/07/11 07:45:59;;;;;;;;;6.00;4.00;;;;;;;;5066716;28;45397;-68
2022/07/11 07:48:24;;;;;;;;;12.00;5.00;;;;;;;;5074852;28;46247;-68
2022/07/11 07:50:49;;;;;;;;;6.00;4.00;;;;;;;;5075545;28;45505;-68
2022/07/11 07:53:15;;;;;;;;;6.67;4.00;;;;;;;;5075914;28;45532;-67
2022/07/11 07:55:40;;;;;;;;;4.00;4.00;;;;;;;;5075846;28;45499;-67
2022/07/11 07:58:05;;;;;;;;;7.33;4.00;;;;;;;;5075109;28;46259;-67
2022/07/11 08:03:14;;;;;;;;;6.67;4.33;;;;;;;;5074878;28;45476;-66
2022/07/11 08:05:40;;;;;;;;;5.00;5.00;;;;;;;;5077975;28;45541;-67
2022/07/11 08:08:05;;;;;;;;;6.00;6.00;;;;;;;;5076480;28;46815;-70
2022/07/11 08:10:30;;;;;;;;;8.00;4.00;;;;;;;;5075900;28;45720;-66
2022/07/11 08:12:55;;;;;;;;;5.00;5.00;;;;;;;;5076083;28;45545;-68
2022/07/11 08:15:21;;;;;;;;;5.67;5.67;;;;;;;;5070925;28;45485;-66
2022/07/11 08:17:46;;;;;;;;;4.33;4.33;;;;;;;;5057708;28;46397;-67
2022/07/11 08:20:11;;;;;;;;;5.00;4.00;;;;;;;;5057743;28;45390;-67
2022/07/11 08:22:36;;;;;;;;;5.00;5.00;;;;;;;;5058029;28;45631;-68
2022/07/11 08:25:02;;;;;;;;;4.00;4.00;;;;;;;;5058052;28;45406;-68
2022/07/11 08:27:27;;;;;;;;;4.00;4.00;;;;;;;;5057546;28;46370;-68
2022/07/11 08:29:52;;;;;;;;;5.00;5.00;;;;;;;;5060147;28;45425;-68
2022/07/11 08:32:17;;;;;;;;;4.00;4.00;;;;;;;;5077688;28;45480;-68
2022/07/11 08:34:44;;;;;;;;;9.33;6.33;;;;;;;;5061661;28;45489;-68
2022/07/11 08:37:09;;;;;;;;;7.67;5.00;;;;;;;;5068933;28;46743;-68
2022/07/11 08:39:34;;;;;;;;;7.00;5.67;;;;;;;;5078310;28;45889;-68
2022/07/11 08:42:00;;;;;;;;;5.67;5.67;;;;;;;;5077826;28;45482;-68
2022/07/11 08:44:25;;;;;;;;;6.00;4.67;;;;;;;;5078915;28;45478;-68
2022/07/11 08:46:52;;;;;;;;;8.33;8.33;;;;;;;;5078210;28;45753;-69
2022/07/11 08:49:18;;;;;;;;;4.33;4.33;;;;;;;;5076794;28;45542;-68
2022/07/11 08:51:43;;;;;;;;;7.33;4.00;;;;;;;;5076669;28;45926;-68
2022/07/11 08:54:10;;;;;;;;;5.67;5.00;;;;;;;;5075981;28;45486;-68
2022/07/11 08:56:36;;;;;;;;;5.00;5.00;;;;;;;;5075897;28;46716;-68
2022/07/11 08:59:02;;;;;;;;;4.00;4.00;;;;;;;;5076493;28;45427;-67
2022/07/11 09:01:29;;;;;;;;;7.33;4.00;;;;;;;;5076382;28;45813;-68
2022/07/11 09:04:11;;;;;;;;;7.33;5.33;;;;;;;;5077074;28;45495;-71
2022/07/11 09:06:37;;;;;;;;;6.00;4.00;;;;;;;;5075404;28;45934;-68
2022/07/11 09:09:02;;;;;;;;;4.00;4.00;;;;;;;;5075244;28;45465;-68
2022/07/11 09:11:28;;;;;;;;;4.33;4.00;;;;;;;;5075600;28;45792;-68
2022/07/11 09:13:53;;;;;;;;;2.33;2.33;;;;;;;;5073519;28;45395;-68
2022/07/11 09:16:19;;;;;;;;;6.33;4.00;;;;;;;;5074571;28;45745;-67
2022/07/11 09:18:44;;;;;;;;;5.00;3.33;;;;;;;;5075473;28;45418;-68
2022/07/11 09:26:44;;;;;;;;;4.00;4.00;;;;;;;;5074512;28;45819;-67
2022/07/11 09:29:10;;;;;;;;;6.00;4.00;;;;;;;;5075494;28;45896;-67
2022/07/11 09:31:36;;;;;;;;;5.00;3.00;;;;;;;;5075520;28;45717;-68
2022/07/11 09:34:06;;;;;;;;;4.00;4.00;;;;;;;;5075462;28;45588;-68
2022/07/11 09:36:35;;;;;;;;;6.00;4.00;;;;;;;;5075366;28;45405;-68
2022/07/11 09:39:01;;;;;;;;;6.00;3.00;;;;;;;;5072227;27;45792;-70
2022/07/11 09:41:26;;;;;;;;;4.00;4.00;;;;;;;;5074797;28;45327;-69
2022/07/11 09:43:51;;;;;;;;;6.33;6.33;;;;;;;;5071434;28;45382;-69
2022/07/11 09:46:23;;;;;;;;;4.67;4.00;;;;;;;;5071264;28;46261;-66
2022/07/11 09:48:48;;;;;;;;;4.00;4.00;;;;;;;;5074407;28;45546;-66
2022/07/11 09:51:19;;;;;;;;;13.67;13.67;;;;;;;;5074902;28;45868;-67
2022/07/11 09:53:57;;;;;;;;;5.00;5.00;;;;;;;;5072729;28;45341;-68
2022/07/11 09:56:39;;;;;;;;;4.67;4.67;;;;;;;;5075335;28;46420;-68
2022/07/11 09:59:05;;;;;;;;;5.67;5.67;;;;;;;;5071133;28;45608;-69
2022/07/11 10:01:30;;;;;;;;;6.67;5.67;;;;;;;;5072737;28;45427;-68
2022/07/11 10:03:56;;;;;;;;;3.67;3.67;;;;;;;;5069618;28;45616;-67
2022/07/11 10:06:22;;;;;;;;;2.00;2.00;;;;;;;;5070162;28;46127;-67
2022/07/11 10:08:47;;;;;;;;;2.00;2.00;;;;;;;;5074168;28;45462;-66
2022/07/11 10:11:13;;;;;;;;;3.50;3.50;;;;;;;;5074699;28;45394;-67
2022/07/11 10:13:38;;;;;;;;;2.75;2.75;;;;;;;;5074141;28;45731;-67
2022/07/11 10:16:07;;;;;;;;;3.50;2.50;;;;;;;;5074170;28;46205;-70
2022/07/11 10:18:35;;;;;;;;;4.00;4.00;;;;;;;;5074841;28;45635;-68
2022/07/11 10:21:00;;;;;;;;;4.00;4.00;;;;;;;;5076012;28;45441;-69
2022/07/11 10:23:28;;;;;;;;;4.00;4.00;;;;;;;;5073776;28;45394;-70
2022/07/11 10:25:54;;;;;;;;;5.25;3.00;;;;;;;;5073731;28;45609;-68
2022/07/11 10:28:25;;;;;;;;;4.00;3.00;;;;;;;;5075078;28;45672;-67
2022/07/11 10:30:52;;;;;;;;;7.25;3.25;;;;;;;;5061133;28;45518;-67
2022/07/11 10:33:17;;;;;;;;;4.50;3.00;;;;;;;;5066010;28;45529;-71
2022/07/11 10:35:47;;;;;;;;;4.75;4.75;;;;;;;;5069221;28;46418;-73
2022/07/11 10:38:12;;;;;;;;;5.25;4.00;;;;;;;;5060324;28;45464;-69
2022/07/11 10:40:40;;;;;;;;;2.75;2.75;;;;;;;;5055482;28;45470;-69
2022/07/11 10:43:06;;;;;;;;;3.00;3.00;;;;;;;;5055316;28;45444;-70
2022/07/11 10:45:48;;;;;;;;;6.00;5.00;;;;;;;;5055284;28;46509;-69
2022/07/11 10:48:13;;;;;;;;;4.25;3.00;;;;;;;;5054554;28;45449;-70
2022/07/11 10:50:40;;;;;;;;;4.00;3.50;;;;;;;;5058617;28;45412;-69
2022/07/11 10:53:09;;;;;;;;;3.25;3.25;;;;;;;;5073122;28;45620;-71
2022/07/11 10:55:35;;;;;;;;;3.00;3.00;;;;;;;;5073621;28;46388;-71
2022/07/11 10:58:06;;;;;;;;;3.25;3.00;;;;;;;;5074923;28;45408;-70
2022/07/11 11:00:32;;;;;;;;;3.25;3.25;;;;;;;;5060876;28;45458;-69
2022/07/11 11:03:04;;;;;;;;;2.75;2.75;;;;;;;;5062294;27;45386;-71
2022/07/11 11:05:43;;;;;;;;;4.00;3.25;;;;;;;;5074979;28;46128;-68
2022/07/11 11:08:27;;;;;;;;;4.25;2.75;;;;;;;;5071030;28;45757;-71
2022/07/11 11:10:52;;;;;;;;;3.50;3.50;;;;;;;;5062142;28;45727;-71
2022/07/11 11:13:20;;;;;;;;;2.50;2.00;;;;;;;;5072960;28;45522;-68
2022/07/11 11:15:47;;;;;;;;;3.00;3.00;;;;;;;;5072164;28;45908;-69
2022/07/11 11:18:24;;;;;;;;;2.00;2.00;;;;;;;;5074040;28;45936;-69
2022/07/11 11:21:09;;;;;;;;;2.00;2.00;;;;;;;;5073825;28;45536;-71
2022/07/11 11:23:35;;;;;;;;;3.25;3.25;;;;;;;;5074426;28;45952;-69
2022/07/11 11:26:04;;;;;;;;;3.75;3.25;;;;;;;;5074690;28;45370;-70
2022/07/11 11:28:30;;;;;;;;;2.00;2.00;;;;;;;;5073073;28;45696;-70
2022/07/11 11:30:55;;;;;;;;;8.75;8.75;;;;;;;;5074411;28;45372;-69
2022/07/11 11:33:21;;;;;;;;;5.00;5.00;;;;;;;;5074589;28;45470;-70
2022/07/11 11:35:58;;;;;;;;;4.33;4.00;;;;;;;;5073404;28;45537;-68
2022/07/11 11:38:24;;;;;;;;;6.00;6.00;;;;;;;;5073999;28;45416;-68
2022/07/11 11:40:49;;;;;;;;;3.00;3.00;;;;;;;;5074040;28;45659;-68
2022/07/11 11:43:21;;;;;;;;;5.33;4.33;;;;;;;;5074551;28;45373;-68
2022/07/11 11:45:50;;;;;;;;;6.00;6.00;;;;;;;;5074474;28;46485;-69
2022/07/11 11:48:34;;;;;;;;;3.67;3.67;;;;;;;;5073845;28;45563;-68
2022/07/11 11:51:00;;;;;;;;;5.33;3.67;;;;;;;;5073910;28;45400;-68
2022/07/11 11:53:25;;;;;;;;;4.67;4.00;;;;;;;;5074176;28;45788;-69
2022/07/11 11:55:51;;;;;;;;;4.00;4.00;;;;;;;;5074067;28;46072;-68
2022/07/11 11:58:16;;;;;;;;;3.00;3.00;;;;;;;;5073524;28;45323;-66
2022/07/11 12:00:41;;;;;;;;;5.00;3.00;;;;;;;;5073322;28;45660;-66
2022/07/11 12:03:06;;;;;;;;;2.33;2.33;;;;;;;;5072523;28;45783;-66
2022/07/11 12:05:32;;;;;;;;;4.00;4.00;;;;;;;;5073839;28;45608;-66
2022/07/11 12:07:57;;;;;;;;;3.00;3.00;;;;;;;;5072181;28;45509;-67
2022/07/11 12:10:23;;;;;;;;;3.33;3.33;;;;;;;;5072020;28;45455;-68
2022/07/11 12:12:49;;;;;;;;;4.67;3.67;;;;;;;;5073259;28;45339;-68
2022/07/11 12:15:25;;;;;;;;;4.33;4.33;;;;;;;;5071887;27;46127;-67
2022/07/11 12:17:52;;;;;;;;;4.00;4.00;;;;;;;;5073611;28;45563;-68
2022/07/11 12:20:32;;;;;;;;;5.00;4.00;;;;;;;;5073943;28;45402;-68
2022/07/11 12:22:57;;;;;;;;;5.67;5.67;;;;;;;;5073691;28;45472;-69
2022/07/11 12:25:23;;;;;;;;;5.67;5.00;;;;;;;;5073296;28;46702;-67
2022/07/11 12:27:54;;;;;;;;;4.00;4.00;;;;;;;;5074184;28;45666;-67
2022/07/11 12:30:23;;;;;;;;;3.00;3.00;;;;;;;;5074065;28;45408;-67
2022/07/11 12:33:07;;;;;;;;;4.33;4.33;;;;;;;;5073872;28;45664;-66
2022/07/11 12:35:32;;;;;;;;;11.67;11.67;;;;;;;;5073609;28;46473;-66
2022/07/11 12:37:57;;;;;;;;;5.00;5.00;;;;;;;;5073908;28;45383;-66
2022/07/11 12:40:22;;;;;;;;;5.33;5.33;;;;;;;;5060190;28;45876;-66
2022/07/11 12:42:48;;;;;;;;;4.33;4.33;;;;;;;;5070373;27;45387;-69
2022/07/11 12:45:15;;;;;;;;;7.00;5.33;;;;;;;;5072697;28;45419;-69
2022/07/11 12:47:40;;;;;;;;;6.33;5.00;;;;;;;;5075592;28;45473;-69
2022/07/11 12:50:15;;;;;;;;;4.67;4.67;;;;;;;;5075148;28;45503;-68
2022/07/11 12:52:41;;;;;;;;;8.00;6.00;;;;;;;;5075482;28;45739;-69
2022/07/11 12:55:07;;;;;;;;;0.00;0.00;;;;;;;;5070541;28;45522;-70
2022/07/11 12:57:32;;;;;;;;;4.00;4.00;;;;;;;;5056652;28;45485;-70
2022/07/11 13:00:09;;;;;;;;;4.00;4.00;;;;;;;;5056306;28;45892;-70
2022/07/11 13:02:35;;;;;;;;;5.33;5.33;;;;;;;;5060731;28;45758;-69
2022/07/11 13:05:00;;;;;;;;;5.00;5.00;;;;;;;;5076735;28;45975;-69
2022/07/11 13:10:13;;;;;;;;;5.67;5.67;;;;;;;;5075458;28;45518;-68
2022/07/11 13:12:38;;;;;;;;;4.00;4.00;;;;;;;;5075071;28;45814;-69
2022/07/11 13:15:11;;;;;;;;;5.33;4.33;;;;;;;;5074753;28;45790;-68
2022/07/11 13:17:43;;;;;;;;;4.00;4.00;;;;;;;;5076452;28;45511;-67
2022/07/11 13:20:10;;;;;;;;;4.00;4.00;;;;;;;;5075531;28;45757;-69
2022/07/11 13:22:35;;;;;;;;;5.00;4.00;;;;;;;;5074220;28;45450;-71
2022/07/11 13:25:01;;;;;;;;;7.00;6.00;;;;;;;;5075373;28;46410;-69
2022/07/11 13:27:26;;;;;;;;;5.00;4.00;;;;;;;;5074849;28;45710;-68
2022/07/11 13:29:51;;;;;;;;;4.33;4.33;;;;;;;;5075360;28;45449;-68
2022/07/11 13:32:16;;;;;;;;;5.67;5.67;;;;;;;;5075442;28;45826;-68
2022/07/11 13:34:42;;;;;;;;;4.33;4.33;;;;;;;;5074857;28;45477;-68
2022/07/11 13:37:07;;;;;;;;;3.67;3.67;;;;;;;;5075418;28;45408;-68
2022/07/11 13:39:32;;;;;;;;;8.00;6.33;;;;;;;;5075693;28;45674;-69
2022/07/11 13:41:58;;;;;;;;;4.33;4.00;;;;;;;;5076226;28;45447;-69
2022/07/11 13:44:23;;;;;;;;;5.00;4.67;;;;;;;;5074461;28;46717;-70
2022/07/11 13:46:48;;;;;;;;;5.33;5.33;;;;;;;;5075739;28;45661;-69
2022/07/11 13:49:14;;;;;;;;;3.67;3.67;;;;;;;;5075919;28;45440;-70
2022/07/11 13:51:39;;;;;;;;;6.33;5.00;;;;;;;;5076478;28;45586;-70
2022/07/11 13:54:05;;;;;;;;;3.00;3.00;;;;;;;;5075251;28;46331;-69
2022/07/11 13:56:30;;;;;;;;;4.00;4.00;;;;;;;;5075118;28;45808;-68
2022/07/11 13:58:55;;;;;;;;;5.00;3.33;;;;;;;;5075035;28;45626;-69
2022/07/11 14:01:20;;;;;;;;;4.00;4.00;;;;;;;;5075067;28;45519;-67
2022/07/11 14:03:46;;;;;;;;;3.67;3.67;;;;;;;;5075131;28;46302;-69
2022/07/11 14:06:11;;;;;;;;;4.00;4.00;;;;;;;;5074583;28;45348;-68
2022/07/11 14:08:36;;;;;;;;;4.33;3.00;;;;;;;;5072343;28;45521;-69
2022/07/11 14:11:02;;;;;;;;;4.00;4.00;;;;;;;;5072218;28;45800;-68
2022/07/11 14:13:27;;;;;;;;;5.00;4.00;;;;;;;;5073741;28;46147;-68
2022/07/11 14:15:53;;;;;;;;;5.00;3.00;;;;;;;;5070492;28;45503;-66
2022/07/11 14:18:18;;;;;;;;;6.00;4.00;;;;;;;;5075346;28;46439;-69
2022/07/11 14:20:43;;;;;;;;;6.00;3.00;;;;;;;;5074322;28;45521;-68
2022/07/11 14:23:09;;;;;;;;;5.00;5.00;;;;;;;;5074480;28;45488;-69
2022/07/11 14:25:34;;;;;;;;;5.33;5.33;;;;;;;;5056959;28;45735;-68
2022/07/11 14:28:00;;;;;;;;;5.00;5.00;;;;;;;;5075133;28;45367;-70
2022/07/11 14:30:25;;;;;;;;;4.67;3.00;;;;;;;;5075208;28;45426;-68
2022/07/11 14:32:51;;;;;;;;;3.00;3.00;;;;;;;;5074309;28;46998;-68
2022/07/11 14:35:16;;;;;;;;;5.00;4.00;;;;;;;;5075223;28;45298;-69
2022/07/11 14:37:41;;;;;;;;;8.67;4.67;;;;;;;;5073895;28;45577;-69
2022/07/11 14:40:07;;;;;;;;;4.00;3.67;;;;;;;;5075388;28;45664;-69
2022/07/11 14:42:32;;;;;;;;;4.33;4.33;;;;;;;;5074798;28;45744;-72